sensor_id;sensor_type;location;lat;lon;timestamp;P1;durP1;ratioP1;P2;durP2;ratioP2
32228;SDS011;18717;48.034;11.186;2022-10-30T00:01:59;19.63;;;13.30;;
32228;SDS011;18717;48.034;11.186;2022-10-30T00:04:27;19.85;;;14.73;;
32228;SDS011;18717;48.034;11.186;2022-10-30T00:06:57;21.23;;;13.63;;
32228;SDS011;18717;48.034;11.186;2022-10-30T00:09:25;22.65;;;14.73;;
32228;SDS011;18717;48.034;11.186;2022-10-30T00:11:53;15.80;;;13.48;;
32228;SDS011;18717;48.034;11.186;2022-10-30T00:14:21;17.27;;;13.52;;
32228;SDS011;18717;48.034;11.186;2022-10-30T00:16:49;20.98;;;12.98;;
32228;SDS011;18717;48.034;11.186;2022-10-30T00:19:17;19.45;;;14.65;;
32228;SDS011;18717;48.034;11.186;2022-10-30T00:21:45;18.05;;;13.90;;
32228;SDS011;18717;48.034;11.186;2022-10-30T00:24:14;19.33;;;13.07;;
32228;SDS011;18717;48.034;11.186;2022-10-30T00:26:42;18.95;;;12.77;;
32228;SDS011;18717;48.034;11.186;2022-10-30T00:29:10;19.05;;;12.95;;
32228;SDS011;18717;48.034;11.186;2022-10-30T00:31:37;17.10;;;12.60;;
32228;SDS011;18717;48.034;11.186;2022-10-30T00:34:05;16.73;;;13.90;;
32228;SDS011;18717;48.034;11.186;2022-10-30T00:36:33;16.33;;;12.70;;
32228;SDS011;18717;48.034;11.186;2022-10-30T00:39:01;24.75;;;13.07;;
32228;SDS011;18717;48.034;11.186;2022-10-30T00:41:30;20.77;;;13.65;;
32228;SDS011;18717;48.034;11.186;2022-10-30T00:43:58;16.92;;;12.73;;
32228;SDS011;18717;48.034;11.186;2022-10-30T00:46:27;19.50;;;12.25;;
32228;SDS011;18717;48.034;11.186;2022-10-30T00:48:58;17.20;;;12.20;;
32228;SDS011;18717;48.034;11.186;2022-10-30T00:51:27;14.02;;;12.63;;
32228;SDS011;18717;48.034;11.186;2022-10-30T00:53:56;20.02;;;14.95;;
32228;SDS011;18717;48.034;11.186;2022-10-30T00:56:25;23.23;;;13.13;;
32228;SDS011;18717;48.034;11.186;2022-10-30T00:58:56;16.52;;;12.07;;
32228;SDS011;18717;48.034;11.186;2022-10-30T01:01:26;19.25;;;13.25;;
32228;SDS011;18717;48.034;11.186;2022-10-30T01:03:55;19.67;;;13.00;;
32228;SDS011;18717;48.034;11.186;2022-10-30T01:06:24;20.65;;;12.45;;
32228;SDS011;18717;48.034;11.186;2022-10-30T01:08:52;21.25;;;12.32;;
32228;SDS011;18717;48.034;11.186;2022-10-30T01:11:25;14.23;;;11.85;;
32228;SDS011;18717;48.034;11.186;2022-10-30T01:13:55;20.67;;;12.63;;
32228;SDS011;18717;48.034;11.186;2022-10-30T01:16:30;13.50;;;11.20;;
32228;SDS011;18717;48.034;11.186;2022-10-30T01:19:21;19.13;;;12.73;;
32228;SDS011;18717;48.034;11.186;2022-10-30T01:21:56;15.27;;;12.95;;
32228;SDS011;18717;48.034;11.186;2022-10-30T01:24:33;33.50;;;14.98;;
32228;SDS011;18717;48.034;11.186;2022-10-30T01:27:12;29.38;;;13.48;;
32228;SDS011;18717;48.034;11.186;2022-10-30T01:32:25;16.55;;;12.45;;
32228;SDS011;18717;48.034;11.186;2022-10-30T01:35:01;20.23;;;12.23;;
32228;SDS011;18717;48.034;11.186;2022-10-30T01:37:32;16.20;;;12.60;;
32228;SDS011;18717;48.034;11.186;2022-10-30T01:40:05;18.52;;;13.20;;
32228;SDS011;18717;48.034;11.186;2022-10-30T01:42:46;17.80;;;12.75;;
32228;SDS011;18717;48.034;11.186;2022-10-30T01:45:18;18.95;;;13.13;;
32228;SDS011;18717;48.034;11.186;2022-10-30T01:47:57;19.80;;;13.95;;
32228;SDS011;18717;48.034;11.186;2022-10-30T01:50:34;20.83;;;13.23;;
32228;SDS011;18717;48.034;11.186;2022-10-30T01:53:04;22.13;;;13.27;;
32228;SDS011;18717;48.034;11.186;2022-10-30T01:58:05;20.10;;;13.32;;
32228;SDS011;18717;48.034;11.186;2022-10-30T02:03:05;22.55;;;12.75;;
32228;SDS011;18717;48.034;11.186;2022-10-30T02:05:35;15.60;;;12.30;;
32228;SDS011;18717;48.034;11.186;2022-10-30T02:08:05;16.15;;;13.35;;
32228;SDS011;18717;48.034;11.186;2022-10-30T02:10:32;26.27;;;12.38;;
32228;SDS011;18717;48.034;11.186;2022-10-30T02:13:01;27.20;;;12.73;;
32228;SDS011;18717;48.034;11.186;2022-10-30T02:15:29;18.65;;;12.35;;
32228;SDS011;18717;48.034;11.186;2022-10-30T02:17:59;20.60;;;12.82;;
32228;SDS011;18717;48.034;11.186;2022-10-30T02:20:29;20.80;;;13.38;;
32228;SDS011;18717;48.034;11.186;2022-10-30T02:22:57;19.83;;;12.95;;
32228;SDS011;18717;48.034;11.186;2022-10-30T02:25:25;18.65;;;12.98;;
32228;SDS011;18717;48.034;11.186;2022-10-30T02:27:53;14.73;;;13.20;;
32228;SDS011;18717;48.034;11.186;2022-10-30T02:30:20;21.48;;;14.18;;
32228;SDS011;18717;48.034;11.186;2022-10-30T02:32:48;16.70;;;12.85;;
32228;SDS011;18717;48.034;11.186;2022-10-30T02:35:16;20.95;;;13.77;;
32228;SDS011;18717;48.034;11.186;2022-10-30T02:37:47;24.52;;;14.75;;
32228;SDS011;18717;48.034;11.186;2022-10-30T02:40:15;19.10;;;13.90;;
32228;SDS011;18717;48.034;11.186;2022-10-30T02:42:43;21.20;;;12.68;;
32228;SDS011;18717;48.034;11.186;2022-10-30T02:45:11;18.38;;;13.75;;
32228;SDS011;18717;48.034;11.186;2022-10-30T02:47:38;15.48;;;14.00;;
32228;SDS011;18717;48.034;11.186;2022-10-30T02:50:07;15.38;;;12.23;;
32228;SDS011;18717;48.034;11.186;2022-10-30T02:52:35;13.32;;;12.07;;
32228;SDS011;18717;48.034;11.186;2022-10-30T02:55:05;18.42;;;12.38;;
32228;SDS011;18717;48.034;11.186;2022-10-30T02:57:32;16.48;;;12.75;;
32228;SDS011;18717;48.034;11.186;2022-10-30T03:00:00;16.77;;;12.77;;
32228;SDS011;18717;48.034;11.186;2022-10-30T03:02:28;17.33;;;11.85;;
32228;SDS011;18717;48.034;11.186;2022-10-30T03:04:56;18.52;;;11.95;;
32228;SDS011;18717;48.034;11.186;2022-10-30T03:07:23;14.68;;;12.73;;
32228;SDS011;18717;48.034;11.186;2022-10-30T03:09:51;19.25;;;12.35;;
32228;SDS011;18717;48.034;11.186;2022-10-30T03:12:21;23.05;;;13.85;;
32228;SDS011;18717;48.034;11.186;2022-10-30T03:14:49;22.55;;;12.25;;
32228;SDS011;18717;48.034;11.186;2022-10-30T03:17:17;17.92;;;11.68;;
32228;SDS011;18717;48.034;11.186;2022-10-30T03:19:44;28.85;;;12.27;;
32228;SDS011;18717;48.034;11.186;2022-10-30T03:22:12;16.95;;;12.95;;
32228;SDS011;18717;48.034;11.186;2022-10-30T03:24:40;18.83;;;12.75;;
32228;SDS011;18717;48.034;11.186;2022-10-30T03:27:07;22.67;;;12.40;;
32228;SDS011;18717;48.034;11.186;2022-10-30T03:29:37;18.83;;;12.32;;
32228;SDS011;18717;48.034;11.186;2022-10-30T03:32:07;20.58;;;12.95;;
32228;SDS011;18717;48.034;11.186;2022-10-30T03:34:35;18.67;;;12.18;;
32228;SDS011;18717;48.034;11.186;2022-10-30T03:37:03;22.65;;;12.07;;
32228;SDS011;18717;48.034;11.186;2022-10-30T03:39:31;23.17;;;12.00;;
32228;SDS011;18717;48.034;11.186;2022-10-30T03:41:59;20.85;;;14.38;;
32228;SDS011;18717;48.034;11.186;2022-10-30T03:44:27;18.42;;;11.23;;
32228;SDS011;18717;48.034;11.186;2022-10-30T03:46:56;18.25;;;11.88;;
32228;SDS011;18717;48.034;11.186;2022-10-30T03:49:24;17.10;;;11.10;;
32228;SDS011;18717;48.034;11.186;2022-10-30T03:51:52;17.48;;;12.32;;
32228;SDS011;18717;48.034;11.186;2022-10-30T03:54:19;13.15;;;11.80;;
32228;SDS011;18717;48.034;11.186;2022-10-30T03:56:47;17.60;;;11.27;;
32228;SDS011;18717;48.034;11.186;2022-10-30T03:59:15;14.30;;;12.77;;
32228;SDS011;18717;48.034;11.186;2022-10-30T04:01:43;25.20;;;12.88;;
32228;SDS011;18717;48.034;11.186;2022-10-30T04:04:12;18.98;;;12.52;;
32228;SDS011;18717;48.034;11.186;2022-10-30T04:06:40;16.65;;;12.30;;
32228;SDS011;18717;48.034;11.186;2022-10-30T04:09:08;23.38;;;12.73;;
32228;SDS011;18717;48.034;11.186;2022-10-30T04:11:36;14.13;;;11.90;;
32228;SDS011;18717;48.034;11.186;2022-10-30T04:14:03;16.02;;;12.00;;
32228;SDS011;18717;48.034;11.186;2022-10-30T04:16:31;25.20;;;13.07;;
32228;SDS011;18717;48.034;11.186;2022-10-30T04:18:59;20.50;;;12.65;;
32228;SDS011;18717;48.034;11.186;2022-10-30T04:21:28;15.80;;;12.25;;
32228;SDS011;18717;48.034;11.186;2022-10-30T04:23:56;18.15;;;13.05;;
32228;SDS011;18717;48.034;11.186;2022-10-30T04:26:24;17.65;;;12.90;;
32228;SDS011;18717;48.034;11.186;2022-10-30T04:28:52;14.25;;;11.77;;
32228;SDS011;18717;48.034;11.186;2022-10-30T04:31:19;22.27;;;11.65;;
32228;SDS011;18717;48.034;11.186;2022-10-30T04:33:47;27.13;;;13.70;;
32228;SDS011;18717;48.034;11.186;2022-10-30T04:36:15;26.38;;;14.05;;
32228;SDS011;18717;48.034;11.186;2022-10-30T04:38:45;16.42;;;11.93;;
32228;SDS011;18717;48.034;11.186;2022-10-30T04:41:13;15.45;;;11.98;;
32228;SDS011;18717;48.034;11.186;2022-10-30T04:43:40;14.32;;;11.50;;
32228;SDS011;18717;48.034;11.186;2022-10-30T04:46:08;13.75;;;11.55;;
32228;SDS011;18717;48.034;11.186;2022-10-30T04:48:36;22.15;;;12.55;;
32228;SDS011;18717;48.034;11.186;2022-10-30T04:51:04;12.75;;;11.60;;
32228;SDS011;18717;48.034;11.186;2022-10-30T04:53:32;23.75;;;11.95;;
32228;SDS011;18717;48.034;11.186;2022-10-30T04:56:01;17.30;;;11.65;;
32228;SDS011;18717;48.034;11.186;2022-10-30T04:58:29;22.90;;;12.50;;
32228;SDS011;18717;48.034;11.186;2022-10-30T05:00:59;14.15;;;11.05;;
32228;SDS011;18717;48.034;11.186;2022-10-30T05:03:28;17.33;;;12.90;;
32228;SDS011;18717;48.034;11.186;2022-10-30T05:05:57;19.60;;;13.88;;
32228;SDS011;18717;48.034;11.186;2022-10-30T05:08:26;14.35;;;11.73;;
32228;SDS011;18717;48.034;11.186;2022-10-30T05:10:54;17.38;;;12.32;;
32228;SDS011;18717;48.034;11.186;2022-10-30T05:13:24;12.93;;;11.60;;
32228;SDS011;18717;48.034;11.186;2022-10-30T05:15:52;17.77;;;11.18;;
32228;SDS011;18717;48.034;11.186;2022-10-30T05:18:20;14.98;;;11.57;;
32228;SDS011;18717;48.034;11.186;2022-10-30T05:20:48;19.08;;;12.43;;
32228;SDS011;18717;48.034;11.186;2022-10-30T05:23:15;17.13;;;11.27;;
32228;SDS011;18717;48.034;11.186;2022-10-30T05:25:43;12.95;;;11.85;;
32228;SDS011;18717;48.034;11.186;2022-10-30T05:28:11;17.13;;;12.00;;
32228;SDS011;18717;48.034;11.186;2022-10-30T05:30:40;18.90;;;12.25;;
32228;SDS011;18717;48.034;11.186;2022-10-30T05:33:09;14.32;;;12.82;;
32228;SDS011;18717;48.034;11.186;2022-10-30T05:35:37;22.13;;;13.32;;
32228;SDS011;18717;48.034;11.186;2022-10-30T05:38:06;14.75;;;11.90;;
32228;SDS011;18717;48.034;11.186;2022-10-30T05:40:34;26.40;;;12.10;;
32228;SDS011;18717;48.034;11.186;2022-10-30T05:43:02;15.90;;;11.52;;
32228;SDS011;18717;48.034;11.186;2022-10-30T05:45:30;21.50;;;12.85;;
32228;SDS011;18717;48.034;11.186;2022-10-30T05:48:00;16.65;;;12.40;;
32228;SDS011;18717;48.034;11.186;2022-10-30T05:50:30;12.55;;;11.30;;
32228;SDS011;18717;48.034;11.186;2022-10-30T05:52:58;15.32;;;10.73;;
32228;SDS011;18717;48.034;11.186;2022-10-30T05:55:27;13.43;;;11.50;;
32228;SDS011;18717;48.034;11.186;2022-10-30T05:57:55;14.07;;;10.77;;
32228;SDS011;18717;48.034;11.186;2022-10-30T06:00:24;19.10;;;11.27;;
32228;SDS011;18717;48.034;11.186;2022-10-30T06:02:52;14.88;;;11.65;;
32228;SDS011;18717;48.034;11.186;2022-10-30T06:05:28;22.80;;;11.55;;
32228;SDS011;18717;48.034;11.186;2022-10-30T06:07:56;15.65;;;12.00;;
32228;SDS011;18717;48.034;11.186;2022-10-30T06:10:24;14.40;;;12.23;;
32228;SDS011;18717;48.034;11.186;2022-10-30T06:12:52;12.73;;;11.35;;
32228;SDS011;18717;48.034;11.186;2022-10-30T06:15:20;14.20;;;11.85;;
32228;SDS011;18717;48.034;11.186;2022-10-30T06:17:48;21.70;;;10.85;;
32228;SDS011;18717;48.034;11.186;2022-10-30T06:20:17;22.40;;;11.98;;
32228;SDS011;18717;48.034;11.186;2022-10-30T06:22:53;12.65;;;11.38;;
32228;SDS011;18717;48.034;11.186;2022-10-30T06:25:21;16.88;;;11.85;;
32228;SDS011;18717;48.034;11.186;2022-10-30T06:27:49;17.90;;;11.18;;
32228;SDS011;18717;48.034;11.186;2022-10-30T06:30:18;15.10;;;11.77;;
32228;SDS011;18717;48.034;11.186;2022-10-30T06:32:46;17.10;;;11.95;;
32228;SDS011;18717;48.034;11.186;2022-10-30T06:35:14;15.32;;;11.23;;
32228;SDS011;18717;48.034;11.186;2022-10-30T06:37:46;19.20;;;12.48;;
32228;SDS011;18717;48.034;11.186;2022-10-30T06:40:15;15.13;;;12.73;;
32228;SDS011;18717;48.034;11.186;2022-10-30T06:42:44;14.20;;;11.00;;
32228;SDS011;18717;48.034;11.186;2022-10-30T06:45:12;15.43;;;11.82;;
32228;SDS011;18717;48.034;11.186;2022-10-30T06:47:41;14.88;;;11.93;;
32228;SDS011;18717;48.034;11.186;2022-10-30T06:50:11;21.88;;;12.88;;
32228;SDS011;18717;48.034;11.186;2022-10-30T06:52:40;14.45;;;12.57;;
32228;SDS011;18717;48.034;11.186;2022-10-30T06:55:08;14.13;;;11.27;;
32228;SDS011;18717;48.034;11.186;2022-10-30T06:57:38;16.35;;;11.75;;
32228;SDS011;18717;48.034;11.186;2022-10-30T07:00:06;14.85;;;11.50;;
32228;SDS011;18717;48.034;11.186;2022-10-30T07:02:35;13.23;;;11.00;;
32228;SDS011;18717;48.034;11.186;2022-10-30T07:05:03;17.42;;;11.07;;
32228;SDS011;18717;48.034;11.186;2022-10-30T07:07:31;27.00;;;12.52;;
32228;SDS011;18717;48.034;11.186;2022-10-30T07:09:59;12.20;;;10.85;;
32228;SDS011;18717;48.034;11.186;2022-10-30T07:12:26;12.93;;;11.45;;
32228;SDS011;18717;48.034;11.186;2022-10-30T07:14:56;13.82;;;11.90;;
32228;SDS011;18717;48.034;11.186;2022-10-30T07:17:23;14.80;;;11.13;;
32228;SDS011;18717;48.034;11.186;2022-10-30T07:19:51;14.15;;;11.00;;
32228;SDS011;18717;48.034;11.186;2022-10-30T07:22:19;18.48;;;12.25;;
32228;SDS011;18717;48.034;11.186;2022-10-30T07:24:46;16.10;;;11.15;;
32228;SDS011;18717;48.034;11.186;2022-10-30T07:27:14;18.75;;;12.25;;
32228;SDS011;18717;48.034;11.186;2022-10-30T07:29:42;14.00;;;11.48;;
32228;SDS011;18717;48.034;11.186;2022-10-30T07:32:12;17.33;;;12.50;;
32228;SDS011;18717;48.034;11.186;2022-10-30T07:34:39;18.17;;;12.40;;
32228;SDS011;18717;48.034;11.186;2022-10-30T07:37:07;12.32;;;10.55;;
32228;SDS011;18717;48.034;11.186;2022-10-30T07:39:35;15.02;;;11.50;;
32228;SDS011;18717;48.034;11.186;2022-10-30T07:42:03;14.43;;;11.57;;
32228;SDS011;18717;48.034;11.186;2022-10-30T07:44:30;17.23;;;12.25;;
32228;SDS011;18717;48.034;11.186;2022-10-30T07:46:59;13.45;;;12.05;;
32228;SDS011;18717;48.034;11.186;2022-10-30T07:49:28;22.70;;;11.82;;
32228;SDS011;18717;48.034;11.186;2022-10-30T07:51:55;17.20;;;12.57;;
32228;SDS011;18717;48.034;11.186;2022-10-30T07:54:23;14.57;;;10.85;;
32228;SDS011;18717;48.034;11.186;2022-10-30T07:56:51;18.40;;;13.15;;
32228;SDS011;18717;48.034;11.186;2022-10-30T07:59:19;16.35;;;11.75;;
32228;SDS011;18717;48.034;11.186;2022-10-30T08:01:46;17.30;;;11.60;;
32228;SDS011;18717;48.034;11.186;2022-10-30T08:04:15;14.55;;;12.35;;
32228;SDS011;18717;48.034;11.186;2022-10-30T08:06:44;17.30;;;12.15;;
32228;SDS011;18717;48.034;11.186;2022-10-30T08:09:11;15.98;;;12.30;;
32228;SDS011;18717;48.034;11.186;2022-10-30T08:11:39;21.60;;;11.98;;
32228;SDS011;18717;48.034;11.186;2022-10-30T08:14:07;15.95;;;12.15;;
32228;SDS011;18717;48.034;11.186;2022-10-30T08:16:34;21.25;;;12.88;;
32228;SDS011;18717;48.034;11.186;2022-10-30T08:19:02;13.75;;;12.35;;
32228;SDS011;18717;48.034;11.186;2022-10-30T08:21:30;15.07;;;12.13;;
32228;SDS011;18717;48.034;11.186;2022-10-30T08:23:59;16.55;;;12.07;;
32228;SDS011;18717;48.034;11.186;2022-10-30T08:26:27;18.88;;;12.45;;
32228;SDS011;18717;48.034;11.186;2022-10-30T08:28:55;18.13;;;13.23;;
32228;SDS011;18717;48.034;11.186;2022-10-30T08:31:23;14.82;;;11.73;;
32228;SDS011;18717;48.034;11.186;2022-10-30T08:33:50;14.63;;;11.27;;
32228;SDS011;18717;48.034;11.186;2022-10-30T08:36:18;16.48;;;11.18;;
32228;SDS011;18717;48.034;11.186;2022-10-30T08:38:47;13.10;;;11.73;;
32228;SDS011;18717;48.034;11.186;2022-10-30T08:41:16;19.48;;;12.10;;
32228;SDS011;18717;48.034;11.186;2022-10-30T08:43:44;14.98;;;11.95;;
32228;SDS011;18717;48.034;11.186;2022-10-30T08:46:12;15.15;;;12.25;;
32228;SDS011;18717;48.034;11.186;2022-10-30T08:48:40;16.75;;;12.63;;
32228;SDS011;18717;48.034;11.186;2022-10-30T08:51:07;16.95;;;12.75;;
32228;SDS011;18717;48.034;11.186;2022-10-30T08:53:35;15.18;;;12.23;;
32228;SDS011;18717;48.034;11.186;2022-10-30T08:56:03;14.32;;;12.98;;
32228;SDS011;18717;48.034;11.186;2022-10-30T08:58:33;21.85;;;13.18;;
32228;SDS011;18717;48.034;11.186;2022-10-30T09:01:00;15.57;;;13.07;;
32228;SDS011;18717;48.034;11.186;2022-10-30T09:03:28;18.60;;;13.57;;
32228;SDS011;18717;48.034;11.186;2022-10-30T09:05:56;14.32;;;12.93;;
32228;SDS011;18717;48.034;11.186;2022-10-30T09:08:24;15.10;;;13.52;;
32228;SDS011;18717;48.034;11.186;2022-10-30T09:10:53;16.33;;;14.05;;
32228;SDS011;18717;48.034;11.186;2022-10-30T09:13:21;16.42;;;13.73;;
32228;SDS011;18717;48.034;11.186;2022-10-30T09:15:50;14.27;;;12.90;;
32228;SDS011;18717;48.034;11.186;2022-10-30T09:18:18;15.05;;;13.45;;
32228;SDS011;18717;48.034;11.186;2022-10-30T09:20:47;16.45;;;12.68;;
32228;SDS011;18717;48.034;11.186;2022-10-30T09:23:14;14.07;;;12.73;;
32228;SDS011;18717;48.034;11.186;2022-10-30T09:25:42;13.55;;;12.23;;
32228;SDS011;18717;48.034;11.186;2022-10-30T09:28:10;16.63;;;13.15;;
32228;SDS011;18717;48.034;11.186;2022-10-30T09:30:38;14.93;;;13.23;;
32228;SDS011;18717;48.034;11.186;2022-10-30T09:33:07;19.05;;;13.32;;
32228;SDS011;18717;48.034;11.186;2022-10-30T09:35:35;16.42;;;13.55;;
32228;SDS011;18717;48.034;11.186;2022-10-30T09:38:03;17.67;;;13.63;;
32228;SDS011;18717;48.034;11.186;2022-10-30T09:40:35;14.68;;;13.48;;
32228;SDS011;18717;48.034;11.186;2022-10-30T09:43:10;14.35;;;12.90;;
32228;SDS011;18717;48.034;11.186;2022-10-30T09:45:51;17.52;;;12.85;;
32228;SDS011;18717;48.034;11.186;2022-10-30T09:51:17;14.75;;;13.40;;
32228;SDS011;18717;48.034;11.186;2022-10-30T09:53:52;15.00;;;13.45;;
32228;SDS011;18717;48.034;11.186;2022-10-30T09:56:29;15.85;;;14.27;;
32228;SDS011;18717;48.034;11.186;2022-10-30T09:59:00;16.88;;;14.43;;
32228;SDS011;18717;48.034;11.186;2022-10-30T10:01:33;17.40;;;12.80;;
32228;SDS011;18717;48.034;11.186;2022-10-30T10:04:07;16.08;;;14.38;;
32228;SDS011;18717;48.034;11.186;2022-10-30T10:06:53;16.08;;;13.50;;
32228;SDS011;18717;48.034;11.186;2022-10-30T10:11:52;19.75;;;13.38;;
32228;SDS011;18717;48.034;11.186;2022-10-30T10:14:22;18.08;;;13.85;;
32228;SDS011;18717;48.034;11.186;2022-10-30T10:16:52;16.05;;;14.10;;
32228;SDS011;18717;48.034;11.186;2022-10-30T10:19:25;19.70;;;13.82;;
32228;SDS011;18717;48.034;11.186;2022-10-30T10:21:57;16.10;;;14.48;;
32228;SDS011;18717;48.034;11.186;2022-10-30T10:24:27;16.10;;;14.05;;
32228;SDS011;18717;48.034;11.186;2022-10-30T10:26:59;18.45;;;14.70;;
32228;SDS011;18717;48.034;11.186;2022-10-30T10:29:31;17.05;;;14.40;;
32228;SDS011;18717;48.034;11.186;2022-10-30T10:32:09;14.13;;;12.80;;
32228;SDS011;18717;48.034;11.186;2022-10-30T10:35:04;16.38;;;13.80;;
32228;SDS011;18717;48.034;11.186;2022-10-30T10:37:44;14.98;;;13.57;;
32228;SDS011;18717;48.034;11.186;2022-10-30T10:40:17;18.25;;;13.57;;
32228;SDS011;18717;48.034;11.186;2022-10-30T10:42:51;24.10;;;14.32;;
32228;SDS011;18717;48.034;11.186;2022-10-30T10:45:27;16.40;;;14.80;;
32228;SDS011;18717;48.034;11.186;2022-10-30T10:50:54;17.90;;;14.88;;
32228;SDS011;18717;48.034;11.186;2022-10-30T10:53:25;17.40;;;15.77;;
32228;SDS011;18717;48.034;11.186;2022-10-30T10:55:56;19.60;;;13.88;;
32228;SDS011;18717;48.034;11.186;2022-10-30T10:58:26;15.75;;;14.30;;
32228;SDS011;18717;48.034;11.186;2022-10-30T11:00:57;15.55;;;14.13;;
32228;SDS011;18717;48.034;11.186;2022-10-30T11:03:28;16.48;;;13.77;;
32228;SDS011;18717;48.034;11.186;2022-10-30T11:06:03;16.70;;;15.13;;
32228;SDS011;18717;48.034;11.186;2022-10-30T11:08:41;15.27;;;13.88;;
32228;SDS011;18717;48.034;11.186;2022-10-30T11:11:09;17.33;;;14.65;;
32228;SDS011;18717;48.034;11.186;2022-10-30T11:13:37;15.60;;;13.93;;
32228;SDS011;18717;48.034;11.186;2022-10-30T11:16:08;16.60;;;14.80;;
32228;SDS011;18717;48.034;11.186;2022-10-30T11:18:45;15.70;;;14.30;;
32228;SDS011;18717;48.034;11.186;2022-10-30T11:21:16;15.63;;;14.20;;
32228;SDS011;18717;48.034;11.186;2022-10-30T11:23:46;16.10;;;14.65;;
32228;SDS011;18717;48.034;11.186;2022-10-30T11:26:28;19.52;;;15.02;;
32228;SDS011;18717;48.034;11.186;2022-10-30T11:29:00;17.13;;;15.02;;
32228;SDS011;18717;48.034;11.186;2022-10-30T11:31:31;15.27;;;13.90;;
32228;SDS011;18717;48.034;11.186;2022-10-30T11:34:13;17.88;;;14.10;;
32228;SDS011;18717;48.034;11.186;2022-10-30T11:36:51;25.15;;;14.55;;
32228;SDS011;18717;48.034;11.186;2022-10-30T11:39:20;17.17;;;15.40;;
32228;SDS011;18717;48.034;11.186;2022-10-30T11:41:53;18.00;;;14.00;;
32228;SDS011;18717;48.034;11.186;2022-10-30T11:44:24;15.25;;;13.80;;
32228;SDS011;18717;48.034;11.186;2022-10-30T11:46:56;20.05;;;14.40;;
32228;SDS011;18717;48.034;11.186;2022-10-30T11:52:11;15.90;;;14.40;;
32228;SDS011;18717;48.034;11.186;2022-10-30T11:54:40;22.10;;;15.32;;
32228;SDS011;18717;48.034;11.186;2022-10-30T11:57:15;15.85;;;14.35;;
32228;SDS011;18717;48.034;11.186;2022-10-30T11:59:46;21.50;;;15.50;;
32228;SDS011;18717;48.034;11.186;2022-10-30T12:02:18;15.65;;;13.82;;
32228;SDS011;18717;48.034;11.186;2022-10-30T12:04:48;21.60;;;14.02;;
32228;SDS011;18717;48.034;11.186;2022-10-30T12:07:25;19.40;;;14.30;;
32228;SDS011;18717;48.034;11.186;2022-10-30T12:09:54;17.40;;;13.93;;
32228;SDS011;18717;48.034;11.186;2022-10-30T12:12:26;21.67;;;13.82;;
32228;SDS011;18717;48.034;11.186;2022-10-30T12:15:06;14.55;;;13.35;;
32228;SDS011;18717;48.034;11.186;2022-10-30T12:17:36;15.30;;;13.98;;
32228;SDS011;18717;48.034;11.186;2022-10-30T12:20:05;15.77;;;14.15;;
32228;SDS011;18717;48.034;11.186;2022-10-30T12:22:35;15.02;;;13.73;;
32228;SDS011;18717;48.034;11.186;2022-10-30T12:25:05;15.85;;;13.80;;
32228;SDS011;18717;48.034;11.186;2022-10-30T12:27:35;17.87;;;13.77;;
32228;SDS011;18717;48.034;11.186;2022-10-30T12:30:05;18.13;;;14.88;;
32228;SDS011;18717;48.034;11.186;2022-10-30T12:32:38;21.45;;;14.93;;
32228;SDS011;18717;48.034;11.186;2022-10-30T12:38:12;15.88;;;13.75;;
32228;SDS011;18717;48.034;11.186;2022-10-30T12:40:45;18.08;;;14.27;;
32228;SDS011;18717;48.034;11.186;2022-10-30T12:43:23;16.75;;;14.45;;
32228;SDS011;18717;48.034;11.186;2022-10-30T12:45:53;15.97;;;14.43;;
32228;SDS011;18717;48.034;11.186;2022-10-30T12:50:56;14.93;;;13.85;;
32228;SDS011;18717;48.034;11.186;2022-10-30T12:53:37;17.10;;;14.80;;
32228;SDS011;18717;48.034;11.186;2022-10-30T12:56:09;17.30;;;15.70;;
32228;SDS011;18717;48.034;11.186;2022-10-30T12:58:41;17.42;;;15.80;;
32228;SDS011;18717;48.034;11.186;2022-10-30T13:01:15;17.55;;;15.73;;
32228;SDS011;18717;48.034;11.186;2022-10-30T13:03:51;19.45;;;14.70;;
32228;SDS011;18717;48.034;11.186;2022-10-30T13:06:22;16.92;;;14.63;;
32228;SDS011;18717;48.034;11.186;2022-10-30T13:08:57;17.48;;;14.75;;
32228;SDS011;18717;48.034;11.186;2022-10-30T13:11:32;16.58;;;14.85;;
32228;SDS011;18717;48.034;11.186;2022-10-30T13:14:08;18.30;;;15.27;;
32228;SDS011;18717;48.034;11.186;2022-10-30T13:16:38;20.15;;;15.02;;
32228;SDS011;18717;48.034;11.186;2022-10-30T13:19:08;19.45;;;14.45;;
32228;SDS011;18717;48.034;11.186;2022-10-30T13:21:38;18.10;;;14.23;;
32228;SDS011;18717;48.034;11.186;2022-10-30T13:24:13;17.92;;;14.63;;
32228;SDS011;18717;48.034;11.186;2022-10-30T13:26:44;20.65;;;14.00;;
32228;SDS011;18717;48.034;11.186;2022-10-30T13:29:16;17.95;;;14.45;;
32228;SDS011;18717;48.034;11.186;2022-10-30T13:31:50;15.15;;;13.63;;
32228;SDS011;18717;48.034;11.186;2022-10-30T13:34:32;20.85;;;15.00;;
32228;SDS011;18717;48.034;11.186;2022-10-30T13:37:04;15.95;;;14.32;;
32228;SDS011;18717;48.034;11.186;2022-10-30T13:39:38;16.73;;;14.80;;
32228;SDS011;18717;48.034;11.186;2022-10-30T13:42:26;16.27;;;14.50;;
32228;SDS011;18717;48.034;11.186;2022-10-30T13:45:02;67.68;;;17.42;;
32228;SDS011;18717;48.034;11.186;2022-10-30T13:47:39;14.68;;;13.32;;
32228;SDS011;18717;48.034;11.186;2022-10-30T13:50:14;16.92;;;13.70;;
32228;SDS011;18717;48.034;11.186;2022-10-30T13:52:48;17.92;;;16.13;;
32228;SDS011;18717;48.034;11.186;2022-10-30T13:55:21;16.67;;;14.18;;
32228;SDS011;18717;48.034;11.186;2022-10-30T13:57:54;23.25;;;14.80;;
32228;SDS011;18717;48.034;11.186;2022-10-30T14:00:27;14.15;;;12.65;;
32228;SDS011;18717;48.034;11.186;2022-10-30T14:05:53;17.05;;;13.63;;
32228;SDS011;18717;48.034;11.186;2022-10-30T14:08:27;17.63;;;13.75;;
32228;SDS011;18717;48.034;11.186;2022-10-30T14:11:01;21.52;;;14.30;;
32228;SDS011;18717;48.034;11.186;2022-10-30T14:13:43;18.13;;;13.75;;
32228;SDS011;18717;48.034;11.186;2022-10-30T14:19:12;15.45;;;13.95;;
32228;SDS011;18717;48.034;11.186;2022-10-30T14:21:41;16.58;;;14.15;;
32228;SDS011;18717;48.034;11.186;2022-10-30T14:24:19;15.23;;;13.75;;
32228;SDS011;18717;48.034;11.186;2022-10-30T14:26:50;20.35;;;13.98;;
32228;SDS011;18717;48.034;11.186;2022-10-30T14:29:29;14.55;;;13.30;;
32228;SDS011;18717;48.034;11.186;2022-10-30T14:35:27;15.55;;;13.90;;
32228;SDS011;18717;48.034;11.186;2022-10-30T14:40:44;14.73;;;13.32;;
32228;SDS011;18717;48.034;11.186;2022-10-30T14:43:34;15.63;;;13.95;;
32228;SDS011;18717;48.034;11.186;2022-10-30T14:46:09;14.43;;;13.00;;
32228;SDS011;18717;48.034;11.186;2022-10-30T14:48:43;16.70;;;14.45;;
32228;SDS011;18717;48.034;11.186;2022-10-30T14:51:15;16.15;;;13.25;;
32228;SDS011;18717;48.034;11.186;2022-10-30T14:53:51;16.08;;;12.88;;
32228;SDS011;18717;48.034;11.186;2022-10-30T14:56:26;16.20;;;14.43;;
32228;SDS011;18717;48.034;11.186;2022-10-30T15:02:11;14.63;;;13.02;;
32228;SDS011;18717;48.034;11.186;2022-10-30T15:04:58;16.58;;;14.20;;
32228;SDS011;18717;48.034;11.186;2022-10-30T15:07:36;16.20;;;14.10;;